sensor_id;sensor_type;location;lat;lon;timestamp;P1;durP1;ratioP1;P2;durP2;ratioP2
84345;SDS011;74709;53.128;18.020;2024-01-15T00:00:36;11.20;;;7.20;;
84345;SDS011;74709;53.128;18.020;2024-01-15T00:01:59;8.90;;;6.40;;
84345;SDS011;74709;53.128;18.020;2024-01-15T00:03:02;11.70;;;6.80;;
84345;SDS011;74709;53.128;18.020;2024-01-15T00:04:05;11.70;;;7.20;;
84345;SDS011;74709;53.128;18.020;2024-01-15T00:05:07;12.90;;;7.00;;
84345;SDS011;74709;53.128;18.020;2024-01-15T00:06:10;11.90;;;7.40;;
84345;SDS011;74709;53.128;18.020;2024-01-15T00:07:13;10.50;;;7.00;;
84345;SDS011;74709;53.128;18.020;2024-01-15T00:08:16;13.50;;;7.70;;
84345;SDS011;74709;53.128;18.020;2024-01-15T00:09:18;13.70;;;8.50;;
84345;SDS011;74709;53.128;18.020;2024-01-15T00:10:21;10.60;;;6.90;;
84345;SDS011;74709;53.128;18.020;2024-01-15T00:11:24;15.70;;;7.60;;
84345;SDS011;74709;53.128;18.020;2024-01-15T00:12:27;13.10;;;6.20;;
84345;SDS011;74709;53.128;18.020;2024-01-15T00:13:30;10.70;;;6.80;;
84345;SDS011;74709;53.128;18.020;2024-01-15T00:14:33;13.70;;;7.60;;
84345;SDS011;74709;53.128;18.020;2024-01-15T00:15:38;11.80;;;6.40;;
84345;SDS011;74709;53.128;18.020;2024-01-15T00:16:41;10.80;;;7.20;;
84345;SDS011;74709;53.128;18.020;2024-01-15T00:17:44;11.00;;;7.30;;
84345;SDS011;74709;53.128;18.020;2024-01-15T00:18:49;11.80;;;7.10;;
84345;SDS011;74709;53.128;18.020;2024-01-15T00:19:52;12.50;;;7.20;;
84345;SDS011;74709;53.128;18.020;2024-01-15T00:20:55;12.50;;;7.90;;
84345;SDS011;74709;53.128;18.020;2024-01-15T00:21:58;13.70;;;8.10;;
84345;SDS011;74709;53.128;18.020;2024-01-15T00:23:02;11.20;;;7.00;;
84345;SDS011;74709;53.128;18.020;2024-01-15T00:24:05;13.80;;;7.60;;
84345;SDS011;74709;53.128;18.020;2024-01-15T00:25:08;13.30;;;7.40;;
84345;SDS011;74709;53.128;18.020;2024-01-15T00:26:12;13.80;;;7.20;;
84345;SDS011;74709;53.128;18.020;2024-01-15T00:27:20;11.70;;;7.60;;
84345;SDS011;74709;53.128;18.020;2024-01-15T00:28:23;10.20;;;6.30;;
84345;SDS011;74709;53.128;18.020;2024-01-15T00:29:26;14.30;;;8.00;;
84345;SDS011;74709;53.128;18.020;2024-01-15T00:30:29;11.80;;;6.90;;
84345;SDS011;74709;53.128;18.020;2024-01-15T00:31:32;12.80;;;7.50;;
84345;SDS011;74709;53.128;18.020;2024-01-15T00:32:35;10.90;;;7.10;;
84345;SDS011;74709;53.128;18.020;2024-01-15T00:33:37;11.90;;;7.20;;
84345;SDS011;74709;53.128;18.020;2024-01-15T00:34:40;12.80;;;7.60;;
84345;SDS011;74709;53.128;18.020;2024-01-15T00:35:44;12.90;;;6.90;;
84345;SDS011;74709;53.128;18.020;2024-01-15T00:36:47;11.80;;;6.80;;
84345;SDS011;74709;53.128;18.020;2024-01-15T00:37:49;13.40;;;7.50;;
84345;SDS011;74709;53.128;18.020;2024-01-15T00:38:52;10.90;;;7.00;;
84345;SDS011;74709;53.128;18.020;2024-01-15T00:39:55;13.20;;;8.20;;
84345;SDS011;74709;53.128;18.020;2024-01-15T00:40:58;12.60;;;7.20;;
84345;SDS011;74709;53.128;18.020;2024-01-15T00:42:01;12.60;;;7.10;;
84345;SDS011;74709;53.128;18.020;2024-01-15T00:43:04;10.50;;;6.60;;
84345;SDS011;74709;53.128;18.020;2024-01-15T00:44:06;12.00;;;6.90;;
84345;SDS011;74709;53.128;18.020;2024-01-15T00:45:10;12.00;;;6.80;;
84345;SDS011;74709;53.128;18.020;2024-01-15T00:46:13;12.60;;;6.70;;
84345;SDS011;74709;53.128;18.020;2024-01-15T00:47:17;10.20;;;6.80;;
84345;SDS011;74709;53.128;18.020;2024-01-15T00:48:21;13.50;;;7.80;;
84345;SDS011;74709;53.128;18.020;2024-01-15T00:49:23;11.30;;;7.50;;
84345;SDS011;74709;53.128;18.020;2024-01-15T00:50:27;11.80;;;7.50;;
84345;SDS011;74709;53.128;18.020;2024-01-15T00:51:30;10.50;;;6.30;;
84345;SDS011;74709;53.128;18.020;2024-01-15T00:52:33;10.30;;;6.20;;
84345;SDS011;74709;53.128;18.020;2024-01-15T00:53:35;14.10;;;8.00;;
84345;SDS011;74709;53.128;18.020;2024-01-15T00:54:38;12.20;;;7.00;;
84345;SDS011;74709;53.128;18.020;2024-01-15T00:55:42;12.20;;;6.80;;
84345;SDS011;74709;53.128;18.020;2024-01-15T00:56:45;10.80;;;6.60;;
84345;SDS011;74709;53.128;18.020;2024-01-15T00:57:48;13.60;;;7.00;;
84345;SDS011;74709;53.128;18.020;2024-01-15T00:58:51;12.90;;;8.30;;
84345;SDS011;74709;53.128;18.020;2024-01-15T00:59:53;10.30;;;7.10;;
84345;SDS011;74709;53.128;18.020;2024-01-15T01:00:56;13.00;;;7.10;;
84345;SDS011;74709;53.128;18.020;2024-01-15T01:01:59;14.80;;;8.30;;
84345;SDS011;74709;53.128;18.020;2024-01-15T01:03:02;12.90;;;7.50;;
84345;SDS011;74709;53.128;18.020;2024-01-15T01:04:04;12.50;;;7.50;;
84345;SDS011;74709;53.128;18.020;2024-01-15T01:05:07;15.20;;;8.30;;
84345;SDS011;74709;53.128;18.020;2024-01-15T01:06:10;12.70;;;7.00;;
84345;SDS011;74709;53.128;18.020;2024-01-15T01:07:13;16.50;;;8.40;;
84345;SDS011;74709;53.128;18.020;2024-01-15T01:08:15;13.50;;;7.80;;
84345;SDS011;74709;53.128;18.020;2024-01-15T01:09:19;12.20;;;7.00;;
84345;SDS011;74709;53.128;18.020;2024-01-15T01:10:21;11.90;;;7.10;;
84345;SDS011;74709;53.128;18.020;2024-01-15T01:11:24;12.00;;;6.50;;
84345;SDS011;74709;53.128;18.020;2024-01-15T01:12:27;12.20;;;7.50;;
84345;SDS011;74709;53.128;18.020;2024-01-15T01:13:30;11.70;;;7.20;;
84345;SDS011;74709;53.128;18.020;2024-01-15T01:14:33;12.70;;;7.30;;
84345;SDS011;74709;53.128;18.020;2024-01-15T01:15:36;12.40;;;7.20;;
84345;SDS011;74709;53.128;18.020;2024-01-15T01:16:39;11.80;;;7.00;;
84345;SDS011;74709;53.128;18.020;2024-01-15T01:17:42;12.00;;;7.40;;
84345;SDS011;74709;53.128;18.020;2024-01-15T01:18:45;13.50;;;8.70;;
84345;SDS011;74709;53.128;18.020;2024-01-15T01:19:48;12.30;;;7.60;;
84345;SDS011;74709;53.128;18.020;2024-01-15T01:20:52;11.00;;;7.00;;
84345;SDS011;74709;53.128;18.020;2024-01-15T01:21:54;13.60;;;7.60;;
84345;SDS011;74709;53.128;18.020;2024-01-15T01:22:57;11.80;;;7.70;;
84345;SDS011;74709;53.128;18.020;2024-01-15T01:24:00;13.80;;;8.50;;
84345;SDS011;74709;53.128;18.020;2024-01-15T01:25:03;12.50;;;7.70;;
84345;SDS011;74709;53.128;18.020;2024-01-15T01:26:06;14.50;;;7.50;;
84345;SDS011;74709;53.128;18.020;2024-01-15T01:27:09;12.20;;;7.40;;
84345;SDS011;74709;53.128;18.020;2024-01-15T01:28:12;12.50;;;6.70;;
84345;SDS011;74709;53.128;18.020;2024-01-15T01:29:14;10.80;;;7.00;;
84345;SDS011;74709;53.128;18.020;2024-01-15T01:30:17;11.20;;;6.90;;
84345;SDS011;74709;53.128;18.020;2024-01-15T01:31:20;11.60;;;6.50;;
84345;SDS011;74709;53.128;18.020;2024-01-15T01:32:23;12.00;;;6.60;;
84345;SDS011;74709;53.128;18.020;2024-01-15T01:33:26;11.40;;;7.70;;
84345;SDS011;74709;53.128;18.020;2024-01-15T01:34:28;12.30;;;7.90;;
84345;SDS011;74709;53.128;18.020;2024-01-15T01:35:32;10.50;;;5.60;;
84345;SDS011;74709;53.128;18.020;2024-01-15T01:36:35;10.10;;;6.50;;
84345;SDS011;74709;53.128;18.020;2024-01-15T01:37:38;10.70;;;6.60;;
84345;SDS011;74709;53.128;18.020;2024-01-15T01:38:40;10.20;;;7.70;;
84345;SDS011;74709;53.128;18.020;2024-01-15T01:39:43;10.60;;;6.60;;
84345;SDS011;74709;53.128;18.020;2024-01-15T01:40:46;11.30;;;6.90;;
84345;SDS011;74709;53.128;18.020;2024-01-15T01:41:49;10.10;;;6.70;;
84345;SDS011;74709;53.128;18.020;2024-01-15T01:42:52;9.20;;;5.40;;
84345;SDS011;74709;53.128;18.020;2024-01-15T01:43:55;11.70;;;6.70;;
84345;SDS011;74709;53.128;18.020;2024-01-15T01:44:57;10.30;;;6.20;;
84345;SDS011;74709;53.128;18.020;2024-01-15T01:46:00;10.90;;;6.70;;
84345;SDS011;74709;53.128;18.020;2024-01-15T01:47:05;9.40;;;6.30;;
84345;SDS011;74709;53.128;18.020;2024-01-15T01:48:08;10.60;;;6.10;;
84345;SDS011;74709;53.128;18.020;2024-01-15T01:49:11;9.90;;;6.60;;
84345;SDS011;74709;53.128;18.020;2024-01-15T01:50:13;8.30;;;5.70;;
84345;SDS011;74709;53.128;18.020;2024-01-15T01:51:16;9.50;;;5.60;;
84345;SDS011;74709;53.128;18.020;2024-01-15T01:52:19;11.20;;;7.00;;
84345;SDS011;74709;53.128;18.020;2024-01-15T01:53:22;10.10;;;6.50;;
84345;SDS011;74709;53.128;18.020;2024-01-15T01:54:26;9.50;;;5.80;;
84345;SDS011;74709;53.128;18.020;2024-01-15T01:55:30;9.40;;;6.40;;
84345;SDS011;74709;53.128;18.020;2024-01-15T01:56:35;9.00;;;6.60;;
84345;SDS011;74709;53.128;18.020;2024-01-15T01:57:38;11.20;;;6.60;;
84345;SDS011;74709;53.128;18.020;2024-01-15T01:58:41;9.60;;;6.60;;
84345;SDS011;74709;53.128;18.020;2024-01-15T01:59:45;9.00;;;5.80;;
84345;SDS011;74709;53.128;18.020;2024-01-15T02:00:48;12.30;;;6.60;;
84345;SDS011;74709;53.128;18.020;2024-01-15T02:01:52;10.00;;;7.40;;
84345;SDS011;74709;53.128;18.020;2024-01-15T02:02:56;10.30;;;6.20;;
84345;SDS011;74709;53.128;18.020;2024-01-15T02:03:59;8.20;;;5.70;;
84345;SDS011;74709;53.128;18.020;2024-01-15T02:05:03;11.30;;;7.00;;
84345;SDS011;74709;53.128;18.020;2024-01-15T02:07:09;9.40;;;5.60;;
84345;SDS011;74709;53.128;18.020;2024-01-15T02:08:12;11.40;;;6.90;;
84345;SDS011;74709;53.128;18.020;2024-01-15T02:09:15;9.10;;;5.70;;
84345;SDS011;74709;53.128;18.020;2024-01-15T02:10:18;14.30;;;6.30;;
84345;SDS011;74709;53.128;18.020;2024-01-15T02:11:20;9.90;;;6.20;;
84345;SDS011;74709;53.128;18.020;2024-01-15T02:12:23;11.20;;;5.80;;
84345;SDS011;74709;53.128;18.020;2024-01-15T02:13:26;11.40;;;7.00;;
84345;SDS011;74709;53.128;18.020;2024-01-15T02:14:29;9.10;;;5.60;;
84345;SDS011;74709;53.128;18.020;2024-01-15T02:15:32;11.60;;;7.00;;
84345;SDS011;74709;53.128;18.020;2024-01-15T02:16:34;10.40;;;6.80;;
84345;SDS011;74709;53.128;18.020;2024-01-15T02:18:12;11.00;;;6.50;;
84345;SDS011;74709;53.128;18.020;2024-01-15T02:19:07;10.40;;;6.30;;
84345;SDS011;74709;53.128;18.020;2024-01-15T02:20:17;9.20;;;6.00;;
84345;SDS011;74709;53.128;18.020;2024-01-15T02:21:20;10.50;;;6.50;;
84345;SDS011;74709;53.128;18.020;2024-01-15T02:22:23;7.90;;;5.10;;
84345;SDS011;74709;53.128;18.020;2024-01-15T02:23:25;10.00;;;6.30;;
84345;SDS011;74709;53.128;18.020;2024-01-15T02:24:28;9.80;;;6.00;;
84345;SDS011;74709;53.128;18.020;2024-01-15T02:25:31;8.70;;;5.80;;
84345;SDS011;74709;53.128;18.020;2024-01-15T02:26:34;9.40;;;5.70;;
84345;SDS011;74709;53.128;18.020;2024-01-15T02:27:38;10.60;;;6.10;;
84345;SDS011;74709;53.128;18.020;2024-01-15T02:28:41;13.50;;;6.50;;
84345;SDS011;74709;53.128;18.020;2024-01-15T02:29:44;8.80;;;5.00;;
84345;SDS011;74709;53.128;18.020;2024-01-15T02:30:46;9.40;;;6.00;;
84345;SDS011;74709;53.128;18.020;2024-01-15T02:31:49;10.20;;;6.30;;
84345;SDS011;74709;53.128;18.020;2024-01-15T02:32:52;8.80;;;6.10;;
84345;SDS011;74709;53.128;18.020;2024-01-15T02:33:55;9.70;;;6.30;;
84345;SDS011;74709;53.128;18.020;2024-01-15T02:34:57;8.80;;;5.80;;
84345;SDS011;74709;53.128;18.020;2024-01-15T02:36:00;8.60;;;5.60;;
84345;SDS011;74709;53.128;18.020;2024-01-15T02:37:03;10.00;;;6.30;;
84345;SDS011;74709;53.128;18.020;2024-01-15T02:38:06;8.40;;;5.90;;
84345;SDS011;74709;53.128;18.020;2024-01-15T02:39:09;8.10;;;5.70;;
84345;SDS011;74709;53.128;18.020;2024-01-15T02:40:12;9.50;;;5.90;;
84345;SDS011;74709;53.128;18.020;2024-01-15T02:41:15;9.20;;;5.80;;
84345;SDS011;74709;53.128;18.020;2024-01-15T02:42:18;9.20;;;6.30;;
84345;SDS011;74709;53.128;18.020;2024-01-15T02:43:20;8.10;;;5.40;;
84345;SDS011;74709;53.128;18.020;2024-01-15T02:44:23;7.70;;;5.30;;
84345;SDS011;74709;53.128;18.020;2024-01-15T02:45:26;9.60;;;5.60;;
84345;SDS011;74709;53.128;18.020;2024-01-15T02:46:29;9.80;;;5.80;;
84345;SDS011;74709;53.128;18.020;2024-01-15T02:47:32;8.40;;;5.70;;
84345;SDS011;74709;53.128;18.020;2024-01-15T02:48:34;11.00;;;6.00;;
84345;SDS011;74709;53.128;18.020;2024-01-15T02:49:37;8.80;;;5.90;;
84345;SDS011;74709;53.128;18.020;2024-01-15T02:50:40;9.30;;;5.40;;
84345;SDS011;74709;53.128;18.020;2024-01-15T02:51:43;9.30;;;5.40;;
84345;SDS011;74709;53.128;18.020;2024-01-15T02:52:45;8.90;;;5.40;;
84345;SDS011;74709;53.128;18.020;2024-01-15T02:53:49;8.90;;;5.50;;
84345;SDS011;74709;53.128;18.020;2024-01-15T02:54:52;10.00;;;6.10;;
84345;SDS011;74709;53.128;18.020;2024-01-15T02:55:55;9.20;;;5.50;;
84345;SDS011;74709;53.128;18.020;2024-01-15T02:56:57;7.60;;;4.70;;
84345;SDS011;74709;53.128;18.020;2024-01-15T02:58:00;8.70;;;4.80;;
84345;SDS011;74709;53.128;18.020;2024-01-15T02:59:03;8.00;;;5.10;;
84345;SDS011;74709;53.128;18.020;2024-01-15T03:00:06;9.10;;;5.50;;
84345;SDS011;74709;53.128;18.020;2024-01-15T03:01:10;10.40;;;6.40;;
84345;SDS011;74709;53.128;18.020;2024-01-15T03:02:12;7.60;;;5.00;;
84345;SDS011;74709;53.128;18.020;2024-01-15T03:03:15;9.20;;;5.30;;
84345;SDS011;74709;53.128;18.020;2024-01-15T03:04:18;8.60;;;5.10;;
84345;SDS011;74709;53.128;18.020;2024-01-15T03:05:20;8.40;;;6.10;;
84345;SDS011;74709;53.128;18.020;2024-01-15T03:06:23;10.10;;;5.80;;
84345;SDS011;74709;53.128;18.020;2024-01-15T03:07:27;8.00;;;5.40;;
84345;SDS011;74709;53.128;18.020;2024-01-15T03:08:30;11.10;;;5.90;;
84345;SDS011;74709;53.128;18.020;2024-01-15T03:09:33;10.70;;;6.00;;
84345;SDS011;74709;53.128;18.020;2024-01-15T03:10:36;9.50;;;5.60;;
84345;SDS011;74709;53.128;18.020;2024-01-15T03:11:38;9.90;;;6.60;;
84345;SDS011;74709;53.128;18.020;2024-01-15T03:12:41;8.80;;;5.80;;
84345;SDS011;74709;53.128;18.020;2024-01-15T03:13:44;10.60;;;5.90;;
84345;SDS011;74709;53.128;18.020;2024-01-15T03:14:47;10.70;;;6.30;;
84345;SDS011;74709;53.128;18.020;2024-01-15T03:15:49;11.60;;;7.50;;
84345;SDS011;74709;53.128;18.020;2024-01-15T03:16:52;12.10;;;7.60;;
84345;SDS011;74709;53.128;18.020;2024-01-15T03:17:55;11.90;;;7.60;;
84345;SDS011;74709;53.128;18.020;2024-01-15T03:18:58;11.50;;;7.40;;
84345;SDS011;74709;53.128;18.020;2024-01-15T03:20:01;10.30;;;6.50;;
84345;SDS011;74709;53.128;18.020;2024-01-15T03:21:05;12.50;;;7.20;;
84345;SDS011;74709;53.128;18.020;2024-01-15T03:22:08;14.20;;;7.50;;
84345;SDS011;74709;53.128;18.020;2024-01-15T03:23:11;12.90;;;7.90;;
84345;SDS011;74709;53.128;18.020;2024-01-15T03:24:14;13.90;;;7.20;;
84345;SDS011;74709;53.128;18.020;2024-01-15T03:25:16;14.10;;;8.30;;
84345;SDS011;74709;53.128;18.020;2024-01-15T03:26:19;12.90;;;6.90;;
84345;SDS011;74709;53.128;18.020;2024-01-15T03:27:22;13.30;;;7.30;;
84345;SDS011;74709;53.128;18.020;2024-01-15T03:28:24;14.50;;;8.40;;
84345;SDS011;74709;53.128;18.020;2024-01-15T03:29:27;13.50;;;7.90;;
84345;SDS011;74709;53.128;18.020;2024-01-15T03:30:30;14.90;;;7.50;;
84345;SDS011;74709;53.128;18.020;2024-01-15T03:31:33;12.60;;;6.90;;
84345;SDS011;74709;53.128;18.020;2024-01-15T03:32:36;11.60;;;7.00;;
84345;SDS011;74709;53.128;18.020;2024-01-15T03:33:38;15.20;;;7.70;;
84345;SDS011;74709;53.128;18.020;2024-01-15T03:34:41;14.60;;;7.00;;
84345;SDS011;74709;53.128;18.020;2024-01-15T03:35:44;12.10;;;7.20;;
84345;SDS011;74709;53.128;18.020;2024-01-15T03:36:46;14.40;;;7.50;;
84345;SDS011;74709;53.128;18.020;2024-01-15T03:37:49;16.00;;;8.50;;
84345;SDS011;74709;53.128;18.020;2024-01-15T03:38:52;16.20;;;7.90;;
84345;SDS011;74709;53.128;18.020;2024-01-15T03:39:55;17.20;;;8.60;;
84345;SDS011;74709;53.128;18.020;2024-01-15T03:40:57;13.90;;;7.90;;
84345;SDS011;74709;53.128;18.020;2024-01-15T03:42:00;16.80;;;9.40;;
84345;SDS011;74709;53.128;18.020;2024-01-15T03:43:03;17.50;;;9.40;;
84345;SDS011;74709;53.128;18.020;2024-01-15T03:44:06;17.10;;;9.80;;
84345;SDS011;74709;53.128;18.020;2024-01-15T03:45:09;18.10;;;9.00;;
84345;SDS011;74709;53.128;18.020;2024-01-15T03:46:11;14.80;;;8.50;;
84345;SDS011;74709;53.128;18.020;2024-01-15T03:47:15;16.20;;;8.30;;
84345;SDS011;74709;53.128;18.020;2024-01-15T03:48:17;12.50;;;6.90;;
84345;SDS011;74709;53.128;18.020;2024-01-15T03:49:20;15.60;;;8.30;;
84345;SDS011;74709;53.128;18.020;2024-01-15T03:50:23;16.10;;;8.50;;
84345;SDS011;74709;53.128;18.020;2024-01-15T03:51:25;14.30;;;7.60;;
84345;SDS011;74709;53.128;18.020;2024-01-15T03:52:28;15.10;;;8.00;;
84345;SDS011;74709;53.128;18.020;2024-01-15T03:53:32;15.20;;;8.40;;
84345;SDS011;74709;53.128;18.020;2024-01-15T03:54:34;16.10;;;8.30;;
84345;SDS011;74709;53.128;18.020;2024-01-15T03:55:37;15.60;;;7.50;;
84345;SDS011;74709;53.128;18.020;2024-01-15T03:56:40;18.90;;;7.70;;
84345;SDS011;74709;53.128;18.020;2024-01-15T03:57:42;14.90;;;7.40;;
84345;SDS011;74709;53.128;18.020;2024-01-15T03:58:45;15.90;;;7.80;;
84345;SDS011;74709;53.128;18.020;2024-01-15T03:59:48;16.30;;;8.10;;
84345;SDS011;74709;53.128;18.020;2024-01-15T04:00:50;14.30;;;7.60;;
84345;SDS011;74709;53.128;18.020;2024-01-15T04:01:53;14.10;;;7.20;;
84345;SDS011;74709;53.128;18.020;2024-01-15T04:02:56;21.20;;;9.40;;
84345;SDS011;74709;53.128;18.020;2024-01-15T04:03:59;14.80;;;8.60;;
84345;SDS011;74709;53.128;18.020;2024-01-15T04:05:02;13.40;;;7.70;;
84345;SDS011;74709;53.128;18.020;2024-01-15T04:06:05;17.30;;;8.70;;
84345;SDS011;74709;53.128;18.020;2024-01-15T04:07:08;19.00;;;9.00;;
84345;SDS011;74709;53.128;18.020;2024-01-15T04:08:12;16.60;;;7.80;;
84345;SDS011;74709;53.128;18.020;2024-01-15T04:09:14;16.10;;;8.50;;
84345;SDS011;74709;53.128;18.020;2024-01-15T04:10:18;17.20;;;7.70;;
84345;SDS011;74709;53.128;18.020;2024-01-15T04:11:21;17.40;;;8.70;;
84345;SDS011;74709;53.128;18.020;2024-01-15T04:12:24;14.70;;;7.70;;
84345;SDS011;74709;53.128;18.020;2024-01-15T04:13:27;14.40;;;8.00;;
84345;SDS011;74709;53.128;18.020;2024-01-15T04:14:30;13.50;;;6.90;;
84345;SDS011;74709;53.128;18.020;2024-01-15T04:15:33;14.30;;;8.00;;
84345;SDS011;74709;53.128;18.020;2024-01-15T04:16:37;15.30;;;8.10;;
84345;SDS011;74709;53.128;18.020;2024-01-15T04:17:40;12.50;;;7.20;;
84345;SDS011;74709;53.128;18.020;2024-01-15T04:18:42;16.00;;;8.40;;
84345;SDS011;74709;53.128;18.020;2024-01-15T04:19:45;15.20;;;7.90;;
84345;SDS011;74709;53.128;18.020;2024-01-15T04:20:48;14.10;;;7.60;;
84345;SDS011;74709;53.128;18.020;2024-01-15T04:21:51;13.40;;;7.00;;
84345;SDS011;74709;53.128;18.020;2024-01-15T04:22:54;14.50;;;8.10;;
84345;SDS011;74709;53.128;18.020;2024-01-15T04:23:56;13.30;;;7.10;;
84345;SDS011;74709;53.128;18.020;2024-01-15T04:24:59;13.60;;;7.60;;
84345;SDS011;74709;53.128;18.020;2024-01-15T04:26:02;13.50;;;8.00;;
84345;SDS011;74709;53.128;18.020;2024-01-15T04:27:05;12.90;;;6.50;;
84345;SDS011;74709;53.128;18.020;2024-01-15T04:28:09;13.50;;;8.00;;
84345;SDS011;74709;53.128;18.020;2024-01-15T04:29:12;11.10;;;6.10;;
84345;SDS011;74709;53.128;18.020;2024-01-15T04:30:14;10.00;;;6.40;;
84345;SDS011;74709;53.128;18.020;2024-01-15T04:31:21;9.50;;;6.00;;
84345;SDS011;74709;53.128;18.020;2024-01-15T04:32:25;9.40;;;5.00;;
84345;SDS011;74709;53.128;18.020;2024-01-15T04:33:28;7.40;;;4.50;;
84345;SDS011;74709;53.128;18.020;2024-01-15T04:34:30;7.40;;;4.30;;
84345;SDS011;74709;53.128;18.020;2024-01-15T04:35:34;7.80;;;5.10;;
84345;SDS011;74709;53.128;18.020;2024-01-15T04:36:40;5.40;;;3.80;;
84345;SDS011;74709;53.128;18.020;2024-01-15T04:37:46;5.60;;;3.50;;
84345;SDS011;74709;53.128;18.020;2024-01-15T04:38:48;7.80;;;4.20;;
84345;SDS011;74709;53.128;18.020;2024-01-15T04:39:51;6.10;;;3.60;;
84345;SDS011;74709;53.128;18.020;2024-01-15T04:40:57;7.80;;;3.70;;
84345;SDS011;74709;53.128;18.020;2024-01-15T04:42:00;7.50;;;4.00;;
84345;SDS011;74709;53.128;18.020;2024-01-15T04:43:02;5.30;;;3.60;;
84345;SDS011;74709;53.128;18.020;2024-01-15T04:44:05;7.00;;;3.60;;
84345;SDS011;74709;53.128;18.020;2024-01-15T04:45:08;6.70;;;3.30;;
84345;SDS011;74709;53.128;18.020;2024-01-15T04:46:11;7.50;;;3.90;;
84345;SDS011;74709;53.128;18.020;2024-01-15T04:47:14;5.90;;;3.30;;
84345;SDS011;74709;53.128;18.020;2024-01-15T04:48:16;5.40;;;3.50;;
84345;SDS011;74709;53.128;18.020;2024-01-15T04:49:19;6.30;;;3.40;;
84345;SDS011;74709;53.128;18.020;2024-01-15T04:50:22;6.20;;;3.40;;
84345;SDS011;74709;53.128;18.020;2024-01-15T04:51:25;7.00;;;3.70;;
84345;SDS011;74709;53.128;18.020;2024-01-15T04:52:28;6.40;;;3.80;;
84345;SDS011;74709;53.128;18.020;2024-01-15T04:53:30;7.80;;;4.30;;
84345;SDS011;74709;53.128;18.020;2024-01-15T04:54:33;6.40;;;3.80;;
84345;SDS011;74709;53.128;18.020;2024-01-15T04:55:36;5.70;;;3.70;;
84345;SDS011;74709;53.128;18.020;2024-01-15T04:56:39;6.50;;;3.40;;
84345;SDS011;74709;53.128;18.020;2024-01-15T04:57:41;7.50;;;4.00;;
84345;SDS011;74709;53.128;18.020;2024-01-15T04:58:44;7.70;;;3.90;;
84345;SDS011;74709;53.128;18.020;2024-01-15T04:59:47;6.70;;;3.90;;
84345;SDS011;74709;53.128;18.020;2024-01-15T05:00:50;6.60;;;4.50;;
84345;SDS011;74709;53.128;18.020;2024-01-15T05:01:52;7.70;;;3.80;;
84345;SDS011;74709;53.128;18.020;2024-01-15T05:02:55;6.80;;;4.20;;
84345;SDS011;74709;53.128;18.020;2024-01-15T05:03:58;6.80;;;4.20;;
84345;SDS011;74709;53.128;18.020;2024-01-15T05:05:01;6.90;;;4.20;;
84345;SDS011;74709;53.128;18.020;2024-01-15T05:06:04;8.10;;;4.00;;
84345;SDS011;74709;53.128;18.020;2024-01-15T05:07:07;7.40;;;4.00;;
84345;SDS011;74709;53.128;18.020;2024-01-15T05:08:11;6.30;;;4.20;;
84345;SDS011;74709;53.128;18.020;2024-01-15T05:09:13;6.50;;;4.30;;
84345;SDS011;74709;53.128;18.020;2024-01-15T05:10:16;4.20;;;3.00;;
84345;SDS011;74709;53.128;18.020;2024-01-15T05:11:19;5.90;;;3.40;;
84345;SDS011;74709;53.128;18.020;2024-01-15T05:12:22;6.60;;;3.70;;
84345;SDS011;74709;53.128;18.020;2024-01-15T05:13:25;7.20;;;3.80;;
84345;SDS011;74709;53.128;18.020;2024-01-15T05:14:27;6.60;;;3.40;;
84345;SDS011;74709;53.128;18.020;2024-01-15T05:15:30;3.50;;;3.00;;
84345;SDS011;74709;53.128;18.020;2024-01-15T05:16:33;4.00;;;3.10;;
84345;SDS011;74709;53.128;18.020;2024-01-15T05:17:36;7.40;;;2.90;;
84345;SDS011;74709;53.128;18.020;2024-01-15T05:18:38;6.50;;;3.30;;
84345;SDS011;74709;53.128;18.020;2024-01-15T05:19:41;5.90;;;2.90;;
84345;SDS011;74709;53.128;18.020;2024-01-15T05:20:44;5.00;;;2.70;;
84345;SDS011;74709;53.128;18.020;2024-01-15T05:21:47;5.50;;;2.70;;
84345;SDS011;74709;53.128;18.020;2024-01-15T05:22:49;6.50;;;3.00;;
84345;SDS011;74709;53.128;18.020;2024-01-15T05:23:52;6.50;;;3.20;;
84345;SDS011;74709;53.128;18.020;2024-01-15T05:24:55;7.40;;;3.40;;
84345;SDS011;74709;53.128;18.020;2024-01-15T05:25:57;6.00;;;2.30;;
84345;SDS011;74709;53.128;18.020;2024-01-15T05:27:00;7.00;;;3.00;;
84345;SDS011;74709;53.128;18.020;2024-01-15T05:28:05;5.80;;;2.80;;
84345;SDS011;74709;53.128;18.020;2024-01-15T05:29:08;5.10;;;2.90;;
84345;SDS011;74709;53.128;18.020;2024-01-15T05:30:11;5.70;;;3.00;;
84345;SDS011;74709;53.128;18.020;2024-01-15T05:31:14;6.40;;;2.80;;
84345;SDS011;74709;53.128;18.020;2024-01-15T05:32:17;8.40;;;2.80;;
84345;SDS011;74709;53.128;18.020;2024-01-15T05:33:20;3.80;;;2.40;;
84345;SDS011;74709;53.128;18.020;2024-01-15T05:34:22;7.70;;;2.80;;
84345;SDS011;74709;53.128;18.020;2024-01-15T05:35:25;3.90;;;2.30;;
84345;SDS011;74709;53.128;18.020;2024-01-15T05:36:28;4.60;;;2.00;;
84345;SDS011;74709;53.128;18.020;2024-01-15T05:37:31;5.30;;;2.80;;
84345;SDS011;74709;53.128;18.020;2024-01-15T05:38:33;5.50;;;2.40;;
84345;SDS011;74709;53.128;18.020;2024-01-15T05:39:36;8.30;;;2.60;;
84345;SDS011;74709;53.128;18.020;2024-01-15T05:40:39;5.00;;;1.90;;
84345;SDS011;74709;53.128;18.020;2024-01-15T05:41:42;3.20;;;1.70;;
84345;SDS011;74709;53.128;18.020;2024-01-15T05:42:45;3.00;;;1.90;;
84345;SDS011;74709;53.128;18.020;2024-01-15T05:43:47;3.10;;;1.70;;
84345;SDS011;74709;53.128;18.020;2024-01-15T05:44:50;4.10;;;1.70;;
84345;SDS011;74709;53.128;18.020;2024-01-15T05:45:53;2.20;;;1.40;;
84345;SDS011;74709;53.128;18.020;2024-01-15T05:46:56;6.70;;;2.70;;
84345;SDS011;74709;53.128;18.020;2024-01-15T05:47:58;2.60;;;1.70;;
84345;SDS011;74709;53.128;18.020;2024-01-15T05:49:01;4.70;;;1.70;;
84345;SDS011;74709;53.128;18.020;2024-01-15T05:50:04;2.40;;;1.70;;
84345;SDS011;74709;53.128;18.020;2024-01-15T05:51:08;4.70;;;1.70;;
84345;SDS011;74709;53.128;18.020;2024-01-15T05:52:11;3.30;;;1.90;;
84345;SDS011;74709;53.128;18.020;2024-01-15T05:53:14;2.90;;;1.60;;
84345;SDS011;74709;53.128;18.020;2024-01-15T05:54:20;5.00;;;1.90;;
84345;SDS011;74709;53.128;18.020;2024-01-15T05:55:23;3.90;;;1.60;;
84345;SDS011;74709;53.128;18.020;2024-01-15T05:56:26;5.30;;;1.70;;
84345;SDS011;74709;53.128;18.020;2024-01-15T05:57:29;5.50;;;2.00;;
84345;SDS011;74709;53.128;18.020;2024-01-15T05:58:32;2.40;;;1.70;;
84345;SDS011;74709;53.128;18.020;2024-01-15T05:59:35;2.80;;;1.50;;
84345;SDS011;74709;53.128;18.020;2024-01-15T06:00:38;2.70;;;1.60;;
84345;SDS011;74709;53.128;18.020;2024-01-15T06:01:41;4.00;;;2.00;;
84345;SDS011;74709;53.128;18.020;2024-01-15T06:02:44;6.70;;;2.00;;
84345;SDS011;74709;53.128;18.020;2024-01-15T06:03:49;4.00;;;1.90;;
84345;SDS011;74709;53.128;18.020;2024-01-15T06:04:52;4.70;;;2.00;;
84345;SDS011;74709;53.128;18.020;2024-01-15T06:05:55;5.10;;;1.50;;
84345;SDS011;74709;53.128;18.020;2024-01-15T06:06:58;3.70;;;1.40;;
84345;SDS011;74709;53.128;18.020;2024-01-15T06:08:01;3.10;;;1.60;;
84345;SDS011;74709;53.128;18.020;2024-01-15T06:09:03;4.50;;;2.10;;
84345;SDS011;74709;53.128;18.020;2024-01-15T06:10:11;3.50;;;1.90;;
84345;SDS011;74709;53.128;18.020;2024-01-15T06:11:14;4.20;;;2.10;;
84345;SDS011;74709;53.128;18.020;2024-01-15T06:12:17;6.50;;;2.60;;